createdAt,value
2022-10-12T00:00:58.151Z,66.51
2022-10-12T00:03:24.863Z,66.32
2022-10-12T00:06:02.480Z,66.62
2022-10-12T00:08:29.504Z,66.59
2022-10-12T00:10:56.294Z,66.41
2022-10-12T00:13:23.095Z,66.33
2022-10-12T00:15:49.833Z,66.43
2022-10-12T00:18:16.789Z,66.32
2022-10-12T00:20:43.479Z,66.44
2022-10-12T00:23:10.390Z,66.33
2022-10-12T00:25:38.370Z,66.19
2022-10-12T00:28:05.508Z,66.56
2022-10-12T00:30:32.346Z,66.50
2022-10-12T00:32:59.056Z,66.38
2022-10-12T00:35:28.390Z,66.50
2022-10-12T00:37:55.377Z,66.50
2022-10-12T00:40:23.176Z,66.51
2022-10-12T00:42:49.963Z,66.26
2022-10-12T00:45:16.749Z,66.49
2022-10-12T00:47:56.304Z,66.18
2022-10-12T00:50:32.246Z,66.53
2022-10-12T00:53:10.699Z,66.19
2022-10-12T00:55:39.598Z,66.36
2022-10-12T00:58:08.340Z,66.15
2022-10-12T01:00:36.948Z,66.34
2022-10-12T01:03:04.518Z,66.33
2022-10-12T01:05:31.224Z,66.52
2022-10-12T01:07:59.689Z,66.32
2022-10-12T01:10:26.900Z,66.57
2022-10-12T01:12:53.697Z,66.10
2022-10-12T01:15:20.592Z,66.59
2022-10-12T01:17:47.212Z,66.51
2022-10-12T01:20:25.961Z,66.39
2022-10-12T01:23:18.641Z,66.46
2022-10-12T01:26:04.204Z,66.43
2022-10-12T01:28:55.813Z,66.13
2022-10-12T01:31:32.767Z,66.56
2022-10-12T01:34:09.800Z,66.66
2022-10-12T01:36:39.446Z,66.51
2022-10-12T01:39:12.774Z,66.63
2022-10-12T01:41:50.825Z,66.40
2022-10-12T01:44:22.001Z,66.22
2022-10-12T01:46:48.726Z,66.50
2022-10-12T01:49:18.033Z,66.53
2022-10-12T01:52:14.892Z,66.35
2022-10-12T01:54:56.618Z,66.48
2022-10-12T01:57:41.216Z,66.15
2022-10-12T02:00:10.951Z,66.29
2022-10-12T02:02:52.532Z,66.21
2022-10-12T02:05:50.757Z,66.43
2022-10-12T02:08:31.908Z,66.53
2022-10-12T02:11:06.858Z,66.43
2022-10-12T02:13:36.736Z,66.71
2022-10-12T02:16:04.799Z,66.55
2022-10-12T02:18:33.132Z,66.63
2022-10-12T02:21:00.893Z,66.50
2022-10-12T02:23:28.274Z,66.51
2022-10-12T02:25:56.230Z,66.17
2022-10-12T02:28:24.482Z,66.10
2022-10-12T02:31:00.910Z,66.55
2022-10-12T02:33:42.531Z,66.48
2022-10-12T02:36:13.144Z,66.10
2022-10-12T02:38:44.147Z,66.42
2022-10-12T02:41:27.601Z,66.34
2022-10-12T02:43:57.906Z,66.57
2022-10-12T02:46:25.884Z,66.65
2022-10-12T02:48:54.673Z,66.56
2022-10-12T02:51:21.989Z,66.39
2022-10-12T02:53:48.697Z,66.58
2022-10-12T02:56:16.309Z,66.54
2022-10-12T02:58:43.936Z,66.31
2022-10-12T03:01:10.801Z,66.68
2022-10-12T03:03:37.668Z,66.49
2022-10-12T03:06:04.655Z,66.50
2022-10-12T03:08:31.421Z,66.61
2022-10-12T03:11:02.962Z,66.26
2022-10-12T03:13:29.832Z,65.98
2022-10-12T03:16:07.533Z,65.92
2022-10-12T03:18:34.412Z,66.33
2022-10-12T03:21:01.287Z,66.47
2022-10-12T03:23:28.385Z,66.58
2022-10-12T03:25:55.231Z,66.45
2022-10-12T03:28:22.027Z,66.46
2022-10-12T03:30:48.849Z,66.18
2022-10-12T03:33:15.537Z,66.77
2022-10-12T03:35:45.984Z,66.73
2022-10-12T03:38:13.673Z,66.33
2022-10-12T03:40:40.691Z,66.50
2022-10-12T03:43:07.915Z,66.44
2022-10-12T03:45:34.942Z,66.48
2022-10-12T03:48:04.914Z,66.28
2022-10-12T03:50:34.679Z,66.48
2022-10-12T03:53:02.853Z,66.57
2022-10-12T03:55:29.678Z,66.45
2022-10-12T03:57:56.366Z,66.56
2022-10-12T04:00:23.095Z,66.36
2022-10-12T04:02:49.792Z,66.43
2022-10-12T04:05:16.556Z,66.58
2022-10-12T04:07:43.304Z,66.40
2022-10-12T04:10:10.026Z,66.77
2022-10-12T04:12:36.735Z,66.48
2022-10-12T04:15:04.437Z,66.53
2022-10-12T04:17:31.155Z,66.38
2022-10-12T04:19:57.853Z,66.63
2022-10-12T04:22:24.810Z,66.77
2022-10-12T04:24:51.682Z,66.32
2022-10-12T04:27:18.386Z,66.29
2022-10-12T04:29:45.179Z,66.74
2022-10-12T04:32:12.814Z,66.77
2022-10-12T04:34:39.854Z,66.57
2022-10-12T04:37:06.648Z,66.68
2022-10-12T04:39:33.718Z,66.69
2022-10-12T04:42:00.465Z,66.29
2022-10-12T04:44:31.989Z,66.46
2022-10-12T04:47:00.494Z,66.67
2022-10-12T04:49:27.196Z,66.80
2022-10-12T04:51:53.895Z,66.66
2022-10-12T04:54:20.622Z,66.81
2022-10-12T04:56:48.249Z,66.95
2022-10-12T04:59:15.560Z,66.87
2022-10-12T05:01:42.438Z,66.69
2022-10-12T05:04:09.212Z,67.07
2022-10-12T05:06:35.913Z,66.86
2022-10-12T05:09:03.255Z,66.90
2022-10-12T05:11:30.046Z,66.65
2022-10-12T05:13:56.756Z,66.74
2022-10-12T05:16:23.875Z,66.83
2022-10-12T05:18:50.607Z,67.11
2022-10-12T05:21:17.365Z,66.92
2022-10-12T05:23:44.563Z,66.89
2022-10-12T05:26:11.274Z,66.97
2022-10-12T05:28:41.171Z,66.83
2022-10-12T05:31:08.383Z,66.65
2022-10-12T05:33:35.069Z,66.90
2022-10-12T05:36:01.830Z,66.97
2022-10-12T05:38:28.531Z,66.83
2022-10-12T05:41:00.043Z,67.02
2022-10-12T05:43:27.534Z,66.76
2022-10-12T05:45:54.655Z,67.06
2022-10-12T05:48:21.344Z,67.00
2022-10-12T05:50:48.074Z,66.75
2022-10-12T05:53:14.813Z,67.00
2022-10-12T05:55:51.890Z,67.27
2022-10-12T05:58:18.599Z,67.31
2022-10-12T06:00:45.324Z,67.22
2022-10-12T06:03:17.548Z,67.24
2022-10-12T06:05:45.438Z,67.40
2022-10-12T06:08:12.181Z,67.67
2022-10-12T06:13:17.991Z,67.43
2022-10-12T06:15:45.987Z,67.42
2022-10-12T06:18:13.727Z,67.78
2022-10-12T06:20:40.496Z,67.62
2022-10-12T06:23:07.437Z,67.84
2022-10-12T06:25:34.214Z,67.63
2022-10-12T06:28:00.981Z,68.32
2022-10-12T06:30:27.762Z,67.72
2022-10-12T06:32:54.572Z,68.03
2022-10-12T06:35:21.393Z,68.22
2022-10-12T06:37:51.558Z,68.46
2022-10-12T06:40:19.082Z,68.50
2022-10-12T06:42:45.857Z,68.42
2022-10-12T06:45:12.573Z,68.59
2022-10-12T06:47:39.358Z,68.62
2022-10-12T06:50:07.130Z,69.09
2022-10-12T06:52:33.976Z,69.27
2022-10-12T06:55:00.670Z,69.14
2022-10-12T06:57:27.366Z,69.29
2022-10-12T06:59:54.071Z,69.02
2022-10-12T07:02:20.775Z,69.65
2022-10-12T07:04:51.570Z,69.54
2022-10-12T07:07:18.905Z,69.61
2022-10-12T07:09:45.619Z,70.27
2022-10-12T07:12:12.388Z,70.19
2022-10-12T07:14:39.134Z,70.45
2022-10-12T07:17:06.072Z,70.67
2022-10-12T07:19:32.853Z,70.84
2022-10-12T07:21:59.579Z,70.93
2022-10-12T07:24:34.878Z,70.75
2022-10-12T07:27:07.517Z,70.95
2022-10-12T07:29:35.097Z,70.88
2022-10-12T07:32:01.798Z,71.07
2022-10-12T07:34:29.192Z,71.33
2022-10-12T07:36:59.481Z,71.38
2022-10-12T07:39:26.806Z,71.12
2022-10-12T07:41:53.774Z,71.38
2022-10-12T07:44:21.099Z,71.80
2022-10-12T07:46:48.847Z,71.50
2022-10-12T07:49:15.992Z,71.54
2022-10-12T07:51:42.848Z,71.47
2022-10-12T07:54:09.690Z,71.57
2022-10-12T07:56:36.490Z,71.61
2022-10-12T07:59:04.174Z,72.00
2022-10-12T08:01:32.417Z,71.66
2022-10-12T08:04:01.858Z,71.66
2022-10-12T08:06:32.385Z,71.69
2022-10-12T08:09:00.369Z,71.79
2022-10-12T08:11:27.124Z,71.91
2022-10-12T08:13:53.940Z,71.91
2022-10-12T08:16:21.274Z,71.88
2022-10-12T08:18:48.004Z,71.75
2022-10-12T08:21:16.781Z,71.89
2022-10-12T08:23:45.000Z,71.85
2022-10-12T08:26:12.787Z,71.83
2022-10-12T08:28:39.630Z,71.59
2022-10-12T08:31:11.962Z,71.67
2022-10-12T08:33:38.741Z,71.67
2022-10-12T08:36:06.963Z,71.73
2022-10-12T08:38:36.508Z,71.81
2022-10-12T08:41:26.430Z,71.64
2022-10-12T08:44:17.589Z,71.58
2022-10-12T08:46:44.432Z,71.51
2022-10-12T08:49:23.794Z,71.40
2022-10-12T08:51:54.218Z,71.20
2022-10-12T08:54:22.849Z,70.96
2022-10-12T08:56:53.240Z,70.71
2022-10-12T08:59:19.982Z,70.84
2022-10-12T09:02:01.707Z,70.57
2022-10-12T09:04:47.700Z,70.33
2022-10-12T09:07:31.816Z,70.42
2022-10-12T09:10:17.364Z,70.32
2022-10-12T09:12:59.777Z,70.26
2022-10-12T09:15:33.387Z,70.22
2022-10-12T09:18:01.280Z,70.40
2022-10-12T09:20:27.904Z,70.29
2022-10-12T09:23:25.320Z,70.06
2022-10-12T09:26:16.880Z,70.15
2022-10-12T09:28:57.655Z,70.04
2022-10-12T09:31:43.718Z,69.97
2022-10-12T09:34:11.990Z,69.95
2022-10-12T09:36:41.460Z,70.08
2022-10-12T09:39:15.768Z,69.79
2022-10-12T09:41:44.720Z,69.93
2022-10-12T09:44:31.948Z,69.71
2022-10-12T09:47:02.387Z,69.88
2022-10-12T09:49:53.109Z,69.71
2022-10-12T09:52:22.736Z,69.84
2022-10-12T09:54:53.219Z,69.71
2022-10-12T09:57:24.145Z,69.59
2022-10-12T09:59:51.582Z,69.65
2022-10-12T10:02:20.611Z,69.56
2022-10-12T10:04:49.134Z,69.42
2022-10-12T10:07:30.294Z,69.90
2022-10-12T10:10:14.833Z,69.32
2022-10-12T10:12:53.364Z,69.75
2022-10-12T10:15:32.872Z,69.55
2022-10-12T10:18:01.548Z,69.50
2022-10-12T10:20:36.596Z,69.36
2022-10-12T10:23:04.331Z,69.22
2022-10-12T10:25:31.305Z,69.48
2022-10-12T10:28:26.771Z,69.32
2022-10-12T10:30:58.490Z,69.45
2022-10-12T10:33:25.216Z,69.31
2022-10-12T10:35:55.221Z,69.29
2022-10-12T10:38:21.992Z,69.21
2022-10-12T10:40:52.840Z,69.49
2022-10-12T10:43:23.860Z,69.58
2022-10-12T10:45:52.543Z,69.42
2022-10-12T10:48:26.904Z,69.33
2022-10-12T10:51:00.915Z,69.18
2022-10-12T10:53:44.976Z,69.08
2022-10-12T10:56:30.191Z,69.18
2022-10-12T10:58:59.899Z,69.36
2022-10-12T11:01:36.620Z,69.21
2022-10-12T11:04:13.434Z,69.37
2022-10-12T11:06:53.893Z,69.35
2022-10-12T11:09:25.805Z,69.37
2022-10-12T11:12:04.513Z,69.24
2022-10-12T11:14:35.281Z,69.18
2022-10-12T11:17:05.476Z,69.14
2022-10-12T11:19:37.205Z,68.96
2022-10-12T11:22:08.672Z,69.20
2022-10-12T11:24:40.864Z,69.22
2022-10-12T11:27:21.996Z,69.21
2022-10-12T11:30:02.997Z,69.17
2022-10-12T11:32:38.911Z,69.20
2022-10-12T11:35:07.671Z,69.06
2022-10-12T11:38:01.736Z,68.88
2022-10-12T11:41:00.200Z,68.93
2022-10-12T11:43:26.413Z,68.96
2022-10-12T11:45:55.416Z,68.89
2022-10-12T11:48:28.813Z,68.87
2022-10-12T11:51:00.066Z,68.88
2022-10-12T11:53:48.835Z,68.75
2022-10-12T11:56:42.281Z,68.96
2022-10-12T11:59:24.540Z,68.74
2022-10-12T12:02:05.775Z,68.69
2022-10-12T12:04:43.616Z,68.60
2022-10-12T12:07:17.812Z,68.67
2022-10-12T12:09:50.297Z,68.78
2022-10-12T12:12:25.842Z,68.63
2022-10-12T12:14:55.617Z,68.71
2022-10-12T12:17:22.243Z,68.71
2022-10-12T12:19:53.741Z,68.60
2022-10-12T12:22:31.776Z,68.72
2022-10-12T12:25:08.354Z,68.73
2022-10-12T12:27:38.734Z,68.97
2022-10-12T12:30:22.227Z,68.85
2022-10-12T12:32:57.857Z,68.67
2022-10-12T12:35:25.916Z,68.50
2022-10-12T12:38:23.930Z,68.40
2022-10-12T12:40:59.830Z,68.31
2022-10-12T12:43:29.472Z,68.22
2022-10-12T12:46:00.220Z,68.15
2022-10-12T12:48:39.454Z,68.20
2022-10-12T12:51:08.408Z,68.13
2022-10-12T12:53:51.572Z,68.21
2022-10-12T12:56:24.700Z,68.39
2022-10-12T12:59:01.184Z,68.07
2022-10-12T13:01:27.915Z,68.17
2022-10-12T13:04:04.611Z,67.96
2022-10-12T13:07:09.001Z,68.08
2022-10-12T13:10:02.212Z,68.17
2022-10-12T13:13:05.977Z,68.08
2022-10-12T13:16:57.313Z,68.09
2022-10-12T13:19:12.006Z,68.16
2022-10-12T13:21:45.408Z,68.05
2022-10-12T13:24:16.838Z,68.08
2022-10-12T13:26:45.624Z,68.10
2022-10-12T13:29:20.320Z,67.90
2022-10-12T13:31:48.901Z,68.12
2022-10-12T13:34:20.180Z,68.18
2022-10-12T13:36:51.597Z,68.12
2022-10-12T13:39:20.666Z,68.13
2022-10-12T13:41:49.928Z,67.96
2022-10-12T13:44:26.725Z,67.96
2022-10-12T13:47:01.823Z,67.63
2022-10-12T13:49:42.816Z,68.03
2022-10-12T13:52:12.402Z,68.06
2022-10-12T13:54:41.378Z,68.10
2022-10-12T13:57:40.033Z,68.22
2022-10-12T14:00:18.934Z,68.41
2022-10-12T14:03:00.894Z,68.32
2022-10-12T14:05:29.705Z,68.22
2022-10-12T14:08:00.132Z,68.40
2022-10-12T14:10:32.564Z,68.50
2022-10-12T14:13:01.832Z,68.44
2022-10-12T14:15:32.875Z,68.02
2022-10-12T14:17:59.577Z,68.33
2022-10-12T14:20:26.253Z,68.37
2022-10-12T14:22:53.018Z,68.31
2022-10-12T14:25:22.643Z,68.29
2022-10-12T14:27:56.123Z,68.33
2022-10-12T14:30:26.083Z,68.42
2022-10-12T14:32:59.385Z,68.32
2022-10-12T14:35:29.767Z,68.38
2022-10-12T14:37:57.943Z,68.50
2022-10-12T14:40:33.871Z,68.47
2022-10-12T14:43:20.727Z,68.62
2022-10-12T14:45:47.547Z,68.53
2022-10-12T14:48:18.003Z,68.55
2022-10-12T14:50:44.762Z,68.61
2022-10-12T14:53:13.463Z,68.70
2022-10-12T14:55:41.473Z,68.78
2022-10-12T14:58:09.777Z,68.83
2022-10-12T15:00:37.410Z,68.80
2022-10-12T15:03:04.989Z,68.78
2022-10-12T15:05:32.792Z,68.90
2022-10-12T15:08:00.097Z,68.88
2022-10-12T15:10:27.966Z,68.96
2022-10-12T15:12:55.120Z,68.97
2022-10-12T15:15:38.546Z,69.39
2022-10-12T15:18:05.420Z,69.45
2022-10-12T15:20:32.838Z,69.47
2022-10-12T15:22:59.919Z,69.43
2022-10-12T15:25:35.053Z,69.50
2022-10-12T15:28:03.118Z,69.70
2022-10-12T15:30:30.729Z,69.70
2022-10-12T15:32:57.427Z,69.38
2022-10-12T15:35:26.437Z,69.88
2022-10-12T15:37:56.176Z,69.77
2022-10-12T15:40:23.277Z,69.69
2022-10-12T15:42:50.157Z,69.90
2022-10-12T15:45:24.601Z,69.84
2022-10-12T15:47:52.594Z,69.83
2022-10-12T15:50:22.272Z,69.93
2022-10-12T15:52:49.222Z,69.97
2022-10-12T15:55:17.336Z,70.01
2022-10-12T15:57:44.205Z,69.95
2022-10-12T16:00:11.969Z,69.95
2022-10-12T16:02:39.242Z,69.78
2022-10-12T16:05:17.072Z,70.06
2022-10-12T16:07:43.818Z,69.70
2022-10-12T16:10:13.963Z,69.87
2022-10-12T16:12:45.739Z,69.75
2022-10-12T16:15:13.590Z,69.74
2022-10-12T16:17:40.586Z,69.83
2022-10-12T16:20:08.263Z,69.66
2022-10-12T16:22:35.930Z,70.03
2022-10-12T16:25:05.400Z,70.08
2022-10-12T16:27:32.222Z,69.53
2022-10-12T16:30:02.262Z,69.65
2022-10-12T16:32:29.079Z,69.59
2022-10-12T16:34:55.846Z,69.75
2022-10-12T16:37:22.623Z,69.63
2022-10-12T16:39:52.095Z,69.77
2022-10-12T16:42:18.814Z,69.91
2022-10-12T16:44:45.668Z,69.85
2022-10-12T16:47:12.858Z,69.80
2022-10-12T16:49:39.936Z,69.60
2022-10-12T16:52:06.833Z,69.92
2022-10-12T16:54:33.699Z,69.83
2022-10-12T16:57:00.569Z,70.10
2022-10-12T16:59:27.518Z,69.84
2022-10-12T17:01:54.392Z,70.25
2022-10-12T17:04:21.163Z,70.26
2022-10-12T17:06:48.260Z,70.25
2022-10-12T17:09:15.389Z,70.30
2022-10-12T17:11:42.244Z,70.44
2022-10-12T17:14:11.970Z,70.47
2022-10-12T17:16:47.756Z,70.53
2022-10-12T17:19:25.633Z,70.53
2022-10-12T17:21:53.760Z,70.61
2022-10-12T17:24:21.234Z,70.59
2022-10-12T17:26:48.161Z,70.38
2022-10-12T17:29:16.677Z,70.67
2022-10-12T17:31:43.413Z,71.04
2022-10-12T17:34:21.725Z,71.00
2022-10-12T17:36:49.292Z,70.93
2022-10-12T17:39:16.480Z,70.76
2022-10-12T17:41:43.605Z,70.85
2022-10-12T17:44:13.136Z,70.72
2022-10-12T17:46:40.886Z,70.78
2022-10-12T17:49:08.664Z,70.84
2022-10-12T17:51:35.396Z,70.84
2022-10-12T17:54:02.113Z,71.07
2022-10-12T17:56:28.854Z,70.77
2022-10-12T17:58:57.920Z,70.92
2022-10-12T18:01:25.290Z,70.86
2022-10-12T18:03:54.571Z,70.79
2022-10-12T18:06:23.108Z,70.57
2022-10-12T18:08:50.802Z,70.70
2022-10-12T18:11:18.717Z,70.82
2022-10-12T18:13:50.612Z,70.76
2022-10-12T18:16:23.336Z,70.59
2022-10-12T18:18:51.741Z,70.76
2022-10-12T18:21:20.241Z,70.58
2022-10-12T18:23:47.274Z,70.66
2022-10-12T18:26:14.681Z,70.59
2022-10-12T18:28:42.003Z,70.39
2022-10-12T18:31:08.771Z,70.45
2022-10-12T18:33:35.510Z,70.35
2022-10-12T18:36:06.940Z,70.31
2022-10-12T18:38:34.169Z,70.28
2022-10-12T18:41:05.512Z,70.19
2022-10-12T18:43:32.473Z,70.17
2022-10-12T18:45:59.301Z,70.13
2022-10-12T18:48:26.009Z,70.22
2022-10-12T18:50:52.717Z,70.00
2022-10-12T18:53:19.890Z,70.10
2022-10-12T18:55:47.048Z,69.83
2022-10-12T18:58:13.751Z,69.96
2022-10-12T19:00:41.483Z,70.06
2022-10-12T19:03:08.801Z,70.00
2022-10-12T19:05:35.572Z,69.96
2022-10-12T19:08:02.318Z,69.88
2022-10-12T19:10:29.023Z,69.88
2022-10-12T19:12:55.885Z,69.72
2022-10-12T19:15:22.641Z,69.61
2022-10-12T19:17:49.342Z,69.88
2022-10-12T19:20:16.110Z,69.66
2022-10-12T19:22:42.816Z,69.67
2022-10-12T19:25:09.719Z,69.70
2022-10-12T19:27:36.452Z,69.89
2022-10-12T19:30:03.936Z,69.89
2022-10-12T19:32:30.720Z,69.99
2022-10-12T19:34:58.182Z,70.21
2022-10-12T19:37:24.908Z,70.24
2022-10-12T19:39:51.633Z,70.10
2022-10-12T19:42:18.558Z,70.08
2022-10-12T19:44:45.530Z,70.07
2022-10-12T19:47:12.212Z,70.03
2022-10-12T19:49:49.276Z,70.08
2022-10-12T19:52:16.265Z,69.95
2022-10-12T19:54:43.397Z,70.20
2022-10-12T19:57:10.707Z,70.11
2022-10-12T19:59:37.609Z,70.13
2022-10-12T20:02:07.199Z,70.24
2022-10-12T20:04:41.113Z,70.29
2022-10-12T20:07:07.959Z,70.35
2022-10-12T20:09:34.729Z,70.33
2022-10-12T20:12:01.498Z,70.33
2022-10-12T20:14:29.889Z,70.44
2022-10-12T20:16:56.738Z,70.33
2022-10-12T20:19:23.602Z,70.24
2022-10-12T20:21:50.419Z,70.29
2022-10-12T20:24:17.156Z,70.34
2022-10-12T20:26:43.949Z,70.12
2022-10-12T20:29:10.675Z,70.20
2022-10-12T20:31:37.402Z,69.91
2022-10-12T20:34:04.175Z,69.99
2022-10-12T20:36:32.151Z,69.85
2022-10-12T20:38:59.248Z,69.74
2022-10-12T20:41:27.488Z,69.92
2022-10-12T20:43:58.578Z,69.91
2022-10-12T20:46:25.946Z,69.83
2022-10-12T20:48:58.337Z,70.16
2022-10-12T20:51:35.668Z,70.12
2022-10-12T20:54:03.573Z,70.13
2022-10-12T20:56:32.309Z,70.19
2022-10-12T20:58:59.166Z,70.26
2022-10-12T21:01:26.200Z,70.11
2022-10-12T21:03:53.508Z,70.21
2022-10-12T21:06:21.481Z,70.44
2022-10-12T21:08:52.752Z,70.24
2022-10-12T21:11:19.867Z,70.24
2022-10-12T21:13:46.686Z,70.02
2022-10-12T21:16:13.891Z,70.22
2022-10-12T21:18:41.462Z,70.13
2022-10-12T21:21:14.637Z,70.09
2022-10-12T21:23:42.523Z,70.17
2022-10-12T21:26:13.452Z,70.31
2022-10-12T21:28:40.433Z,70.35
2022-10-12T21:31:07.694Z,70.23
2022-10-12T21:33:35.384Z,70.13
2022-10-12T21:36:13.681Z,70.29
2022-10-12T21:38:41.128Z,69.93
2022-10-12T21:41:09.680Z,70.06
2022-10-12T21:43:37.320Z,69.82
2022-10-12T21:46:16.863Z,69.80
2022-10-12T21:48:43.710Z,69.70
2022-10-12T21:51:10.442Z,69.81
2022-10-12T21:53:37.970Z,69.78
2022-10-12T21:56:13.765Z,69.75
2022-10-12T21:58:40.639Z,69.81
2022-10-12T22:01:11.120Z,69.93
2022-10-12T22:03:37.917Z,69.72
2022-10-12T22:06:04.990Z,69.65
2022-10-12T22:08:32.215Z,69.58
2022-10-12T22:11:09.638Z,69.79
2022-10-12T22:13:36.857Z,69.73
2022-10-12T22:16:09.361Z,69.96
2022-10-12T22:18:36.333Z,69.75
2022-10-12T22:21:05.697Z,69.91
2022-10-12T22:23:32.761Z,69.98
2022-10-12T22:26:04.960Z,69.98
2022-10-12T22:28:31.693Z,70.03
2022-10-12T22:30:58.481Z,70.06
2022-10-12T22:33:25.338Z,70.03
2022-10-12T22:35:56.652Z,70.02
2022-10-12T22:38:23.349Z,70.02
2022-10-12T22:40:54.672Z,70.03
2022-10-12T22:43:21.905Z,70.00
2022-10-12T22:45:48.600Z,70.11
2022-10-12T22:48:15.455Z,70.02
2022-10-12T22:50:45.841Z,69.86
2022-10-12T22:53:13.646Z,69.76
2022-10-12T22:55:40.845Z,69.72
2022-10-12T22:58:07.583Z,69.92
2022-10-12T23:00:34.368Z,69.77
2022-10-12T23:03:01.250Z,69.93
2022-10-12T23:05:28.595Z,69.93
2022-10-12T23:07:55.593Z,69.68
2022-10-12T23:10:22.384Z,69.52
2022-10-12T23:12:49.202Z,69.61
2022-10-12T23:15:15.987Z,69.62
2022-10-12T23:17:42.711Z,69.43
2022-10-12T23:20:09.869Z,69.73
2022-10-12T23:22:36.600Z,69.72
2022-10-12T23:25:03.512Z,69.47
2022-10-12T23:27:30.231Z,69.62
2022-10-12T23:29:56.947Z,69.73
2022-10-12T23:32:23.644Z,69.62
2022-10-12T23:34:50.372Z,69.52
2022-10-12T23:37:17.050Z,69.53
2022-10-12T23:39:43.737Z,69.57
2022-10-12T23:42:10.456Z,69.19
2022-10-12T23:44:37.203Z,69.12
2022-10-12T23:47:03.921Z,69.40
2022-10-12T23:49:30.635Z,69.23
2022-10-12T23:51:57.617Z,69.13
2022-10-12T23:54:24.330Z,69.30
2022-10-12T23:56:51.052Z,69.16
2022-10-12T23:59:17.789Z,69.21
